Time;durP1;ratioP1;P1;durP2;ratioP2;P2;SDS_P1;SDS_P2;PMS_P1;PMS_P2;Temp;Humidity;BMP_temperature;BMP_pressure;BME280_temperature;BME280_humidity;BME280_pressure;Samples;Min_cycle;Max_cycle;Signal;HPM_P1;HPM_P2
2022/10/13 00:00:30;;;;;;;18.00;8.88;;;13.20;99.90;;;;;;5013266;28;25053;-71
2022/10/13 00:03:00;;;;;;;19.23;8.70;;;13.10;99.90;;;;;;5026660;28;25085;-72
2022/10/13 00:05:26;;;;;;;15.95;8.38;;;13.10;99.90;;;;;;5027872;28;25055;-72
2022/10/13 00:07:52;;;;;;;15.10;8.73;;;13.10;99.90;;;;;;5031131;28;25061;-72
2022/10/13 00:10:18;;;;;;;17.65;8.27;;;13.20;99.90;;;;;;5027550;28;25113;-72
2022/10/13 00:12:43;;;;;;;21.55;9.85;;;13.20;99.90;;;;;;5034610;28;25377;-71
2022/10/13 00:15:09;;;;;;;26.48;9.80;;;13.20;99.90;;;;;;5024705;28;25072;-73
2022/10/13 00:17:35;;;;;;;16.77;8.45;;;13.30;99.90;;;;;;5028785;28;25064;-72
2022/10/13 00:20:02;;;;;;;21.48;9.23;;;13.20;99.90;;;;;;5028813;28;25152;-73
2022/10/13 00:22:28;;;;;;;19.10;8.93;;;13.20;99.90;;;;;;5024965;28;25096;-72
2022/10/13 00:24:53;;;;;;;18.08;8.68;;;13.20;99.90;;;;;;5025588;28;25095;-73
2022/10/13 00:27:19;;;;;;;21.08;8.65;;;13.20;99.90;;;;;;5029453;28;25067;-71
2022/10/13 00:29:45;;;;;;;17.77;7.25;;;13.20;99.90;;;;;;5028136;28;25136;-72
2022/10/13 00:32:10;;;;;;;15.65;8.30;;;13.30;99.90;;;;;;5026144;28;25190;-72
2022/10/13 00:34:37;;;;;;;19.38;8.40;;;13.30;99.90;;;;;;5026874;28;25051;-73
2022/10/13 00:37:03;;;;;;;17.27;8.48;;;13.30;99.90;;;;;;5027000;28;25066;-73
2022/10/13 00:39:29;;;;;;;14.65;7.50;;;13.30;99.90;;;;;;5022867;28;25065;-71
2022/10/13 00:41:57;;;;;;;19.85;8.82;;;13.30;99.90;;;;;;5025161;28;25072;-71
2022/10/13 00:44:56;;;;;;;19.63;8.25;;;13.30;99.90;;;;;;5007478;28;25080;-69
2022/10/13 00:47:24;;;;;;;23.58;8.57;;;13.40;99.90;;;;;;5023543;28;25068;-73
2022/10/13 00:49:51;;;;;;;15.00;7.43;;;13.40;99.90;;;;;;5026850;28;25069;-73
2022/10/13 00:52:18;;;;;;;15.73;7.65;;;13.40;99.90;;;;;;5028328;28;25068;-72
2022/10/13 00:54:44;;;;;;;18.05;7.10;;;13.40;99.90;;;;;;5024587;28;25168;-72
2022/10/13 00:57:10;;;;;;;16.48;7.45;;;13.50;99.90;;;;;;5025963;28;25099;-73
2022/10/13 00:59:37;;;;;;;16.30;8.35;;;13.50;99.90;;;;;;5024223;28;25071;-71
2022/10/13 01:02:03;;;;;;;14.88;8.30;;;13.70;99.90;;;;;;5019919;28;25156;-72
2022/10/13 01:04:36;;;;;;;22.05;8.07;;;13.60;99.90;;;;;;5023895;28;25176;-70
2022/10/13 01:07:03;;;;;;;16.85;7.68;;;13.70;99.90;;;;;;5026501;28;25076;-72
2022/10/13 01:09:36;;;;;;;17.30;7.72;;;13.70;99.90;;;;;;5009647;28;25072;-71
2022/10/13 01:12:32;;;;;;;14.15;7.05;;;13.70;99.90;;;;;;5026602;28;25078;-72
2022/10/13 01:15:05;;;;;;;15.35;7.75;;;13.80;99.90;;;;;;5028039;28;25075;-71
2022/10/13 01:17:39;;;;;;;17.58;8.52;;;13.80;99.90;;;;;;5026218;28;25100;-72
2022/10/13 01:20:26;;;;;;;18.92;6.82;;;13.90;99.90;;;;;;5030767;28;25099;-73
2022/10/13 01:23:14;;;;;;;15.82;7.30;;;13.80;99.90;;;;;;5014073;28;25077;-71
2022/10/13 01:26:07;;;;;;;16.50;7.13;;;13.80;99.90;;;;;;5019334;28;25055;-71
2022/10/13 01:28:42;;;;;;;14.48;7.03;;;13.70;99.90;;;;;;5024524;28;25088;-71
2022/10/13 01:31:19;;;;;;;18.60;7.93;;;13.60;99.90;;;;;;5028503;28;25109;-71
2022/10/13 01:34:01;;;;;;;23.35;7.95;;;13.60;99.90;;;;;;5027946;28;25123;-71
2022/10/13 01:36:59;;;;;;;17.60;8.60;;;13.80;99.90;;;;;;5024523;28;25067;-72
2022/10/13 01:39:43;;;;;;;17.83;6.70;;;13.80;99.90;;;;;;4991979;28;25073;-73
2022/10/13 01:42:27;;;;;;;16.88;7.20;;;13.90;99.90;;;;;;5025080;28;25148;-71
2022/10/13 01:44:59;;;;;;;15.85;7.45;;;13.90;99.90;;;;;;5029471;28;25103;-72
2022/10/13 01:47:25;;;;;;;18.60;8.27;;;13.90;99.90;;;;;;5027154;28;25174;-71
2022/10/13 01:49:53;;;;;;;21.65;7.60;;;13.90;99.90;;;;;;5029134;28;25050;-72
2022/10/13 01:52:21;;;;;;;14.88;6.78;;;13.90;99.90;;;;;;5030843;28;25047;-71
2022/10/13 01:54:51;;;;;;;11.80;6.13;;;14.00;99.90;;;;;;5026533;28;25069;-71
2022/10/13 01:57:37;;;;;;;15.77;6.35;;;13.90;99.90;;;;;;5029350;28;25057;-72
2022/10/13 02:00:08;;;;;;;21.85;7.40;;;13.90;99.90;;;;;;5027560;28;25125;-72
2022/10/13 02:02:53;;;;;;;14.30;7.30;;;14.00;99.90;;;;;;5012130;28;25104;-72
2022/10/13 02:05:47;;;;;;;17.50;6.40;;;14.00;99.90;;;;;;5030150;28;25076;-72
2022/10/13 02:08:38;;;;;;;11.68;6.45;;;14.00;99.90;;;;;;5028329;28;25050;-71
2022/10/13 02:11:14;;;;;;;12.05;6.90;;;14.10;99.90;;;;;;5023040;28;25045;-73
2022/10/13 02:13:45;;;;;;;17.33;6.93;;;14.10;99.90;;;;;;5028965;28;25142;-71
2022/10/13 02:16:13;;;;;;;11.80;6.53;;;14.10;99.90;;;;;;5024139;28;25145;-72
2022/10/13 02:18:39;;;;;;;13.27;6.82;;;14.00;99.90;;;;;;5026427;28;25099;-73
2022/10/13 02:21:05;;;;;;;15.43;6.30;;;14.00;99.90;;;;;;5024149;28;25159;-73
2022/10/13 02:23:30;;;;;;;10.68;5.72;;;14.00;99.90;;;;;;5028296;28;25098;-70
2022/10/13 02:25:58;;;;;;;13.27;6.72;;;14.10;99.90;;;;;;5031159;28;25049;-72
2022/10/13 02:28:24;;;;;;;12.27;5.90;;;14.00;99.90;;;;;;5032879;28;25178;-71
2022/10/13 02:30:50;;;;;;;16.80;7.40;;;14.10;99.90;;;;;;5023942;28;25078;-73
2022/10/13 02:33:16;;;;;;;15.63;6.03;;;14.00;99.90;;;;;;5026345;28;25060;-72
2022/10/13 02:35:42;;;;;;;16.73;6.38;;;14.10;99.90;;;;;;5025471;28;25207;-71
2022/10/13 02:38:09;;;;;;;11.32;6.35;;;14.20;99.90;;;;;;5027690;28;25100;-72
2022/10/13 02:40:35;;;;;;;16.90;6.60;;;14.20;99.90;;;;;;5032649;28;25049;-72
2022/10/13 02:43:00;;;;;;;15.23;7.07;;;14.10;99.90;;;;;;5033919;28;25054;-71
2022/10/13 02:45:26;;;;;;;19.20;7.97;;;14.00;99.90;;;;;;5034292;28;25051;-72
2022/10/13 02:47:52;;;;;;;17.05;6.70;;;13.90;99.90;;;;;;5026921;28;25067;-73
2022/10/13 02:50:17;;;;;;;15.80;7.05;;;14.00;99.90;;;;;;5010725;28;25078;-73
2022/10/13 02:52:43;;;;;;;11.93;6.40;;;14.10;99.90;;;;;;5032057;28;25074;-71
2022/10/13 02:55:08;;;;;;;13.43;6.93;;;14.10;99.90;;;;;;5030285;28;25132;-72
2022/10/13 02:57:34;;;;;;;18.50;7.70;;;14.10;99.90;;;;;;5029064;28;25150;-73
2022/10/13 03:00:00;;;;;;;17.42;6.97;;;14.10;99.90;;;;;;5027533;28;25166;-71
2022/10/13 03:02:26;;;;;;;17.73;7.22;;;14.10;99.90;;;;;;5030266;28;25165;-72
2022/10/13 03:04:52;;;;;;;12.82;7.05;;;14.20;99.90;;;;;;5023635;28;25068;-72
2022/10/13 03:07:18;;;;;;;17.55;7.15;;;14.30;99.90;;;;;;5029429;28;25072;-70
2022/10/13 03:09:43;;;;;;;18.60;7.35;;;14.30;99.90;;;;;;5023804;28;25094;-73
2022/10/13 03:12:09;;;;;;;17.35;7.28;;;14.40;99.90;;;;;;5012098;28;25051;-72
2022/10/13 03:14:34;;;;;;;23.63;7.93;;;14.30;99.90;;;;;;5023518;28;25144;-71
2022/10/13 03:17:00;;;;;;;17.83;7.30;;;14.30;99.90;;;;;;5027628;28;25151;-72
2022/10/13 03:19:26;;;;;;;12.95;6.53;;;14.30;99.90;;;;;;5029202;28;25118;-72
2022/10/13 03:21:51;;;;;;;21.75;7.32;;;14.40;99.90;;;;;;5029265;28;25070;-73
2022/10/13 03:24:17;;;;;;;17.15;7.65;;;14.40;99.90;;;;;;5032657;28;25177;-72
2022/10/13 03:26:43;;;;;;;12.15;7.30;;;14.40;99.90;;;;;;5015162;28;25063;-73
2022/10/13 03:29:15;;;;;;;15.00;7.13;;;14.40;99.90;;;;;;5032742;28;25082;-72
2022/10/13 03:31:41;;;;;;;16.90;7.47;;;14.40;99.90;;;;;;5032421;28;25108;-72
2022/10/13 03:34:09;;;;;;;12.77;7.45;;;14.40;99.90;;;;;;5031039;28;25079;-73
2022/10/13 03:36:35;;;;;;;18.48;7.82;;;14.40;99.90;;;;;;5028024;28;25054;-72
2022/10/13 03:39:00;;;;;;;19.40;7.78;;;14.30;99.90;;;;;;5024398;28;25065;-73
2022/10/13 03:41:26;;;;;;;20.90;7.60;;;14.40;99.90;;;;;;5008356;28;25084;-72
2022/10/13 03:43:51;;;;;;;19.27;7.60;;;14.30;99.90;;;;;;5023304;28;25135;-73
2022/10/13 03:46:17;;;;;;;17.33;7.38;;;14.30;99.90;;;;;;5004087;28;25075;-73
2022/10/13 03:48:43;;;;;;;20.23;8.35;;;14.40;99.90;;;;;;5028021;28;25065;-71
2022/10/13 03:51:13;;;;;;;14.93;7.28;;;14.30;99.90;;;;;;5021185;28;25084;-72
2022/10/13 03:53:38;;;;;;;19.80;8.05;;;14.30;99.90;;;;;;5029528;28;25177;-73
2022/10/13 03:56:05;;;;;;;17.55;6.40;;;14.30;99.90;;;;;;5024132;28;25109;-72
2022/10/13 03:58:31;;;;;;;17.70;7.53;;;14.30;99.90;;;;;;5027512;28;25164;-71
2022/10/13 04:01:00;;;;;;;12.23;7.43;;;14.30;99.90;;;;;;5027671;28;25078;-74
2022/10/13 04:03:26;;;;;;;13.32;7.90;;;14.40;99.90;;;;;;5026630;28;25075;-73
2022/10/13 04:05:52;;;;;;;16.13;7.30;;;14.30;99.90;;;;;;5020774;28;25091;-73
2022/10/13 04:08:17;;;;;;;14.43;7.05;;;14.20;99.90;;;;;;5027106;28;25132;-72
2022/10/13 04:10:43;;;;;;;17.88;7.53;;;14.30;99.90;;;;;;5019525;28;25067;-72
2022/10/13 04:13:08;;;;;;;13.68;7.75;;;14.20;99.90;;;;;;5028555;28;25107;-72
2022/10/13 04:15:40;;;;;;;14.40;7.38;;;14.40;99.90;;;;;;5028521;28;25090;-74
2022/10/13 04:18:07;;;;;;;20.25;7.50;;;14.30;99.90;;;;;;5025614;28;25129;-72
2022/10/13 04:20:38;;;;;;;22.80;8.38;;;14.40;99.90;;;;;;5026248;28;25051;-73
2022/10/13 04:23:04;;;;;;;20.50;8.53;;;14.40;99.90;;;;;;5034496;28;25110;-74
2022/10/13 04:25:32;;;;;;;19.23;8.07;;;14.40;99.90;;;;;;5037139;28;25117;-72
2022/10/13 04:27:58;;;;;;;22.02;8.60;;;14.40;99.90;;;;;;5039816;28;25061;-73
2022/10/13 04:30:23;;;;;;;22.77;9.43;;;14.40;99.90;;;;;;5038031;28;25080;-73
2022/10/13 04:32:49;;;;;;;20.60;8.07;;;14.40;99.90;;;;;;5033200;28;25080;-74
2022/10/13 04:35:14;;;;;;;13.60;7.68;;;14.50;99.90;;;;;;5045124;28;25102;-74
2022/10/13 04:37:40;;;;;;;16.60;7.90;;;14.50;99.90;;;;;;5039980;28;25083;-73
2022/10/13 04:40:06;;;;;;;22.33;8.27;;;14.50;99.90;;;;;;5042939;28;25073;-72
2022/10/13 04:42:32;;;;;;;16.80;7.85;;;14.50;99.90;;;;;;5042408;28;25058;-71
2022/10/13 04:44:58;;;;;;;20.35;7.97;;;14.50;99.90;;;;;;5030716;28;25069;-73
2022/10/13 04:47:23;;;;;;;28.60;8.13;;;14.50;99.90;;;;;;5025221;28;25063;-72
2022/10/13 04:49:49;;;;;;;19.27;8.02;;;14.60;99.90;;;;;;5028576;28;25059;-72
2022/10/13 04:52:14;;;;;;;20.10;7.80;;;14.70;99.90;;;;;;5025813;28;25065;-72
2022/10/13 04:54:41;;;;;;;18.00;7.70;;;14.70;99.90;;;;;;5021113;28;25111;-72
2022/10/13 04:57:06;;;;;;;21.73;8.38;;;14.60;99.90;;;;;;5017952;28;25134;-72
2022/10/13 04:59:32;;;;;;;18.10;8.65;;;14.70;99.90;;;;;;5020283;28;25080;-72
2022/10/13 05:01:57;;;;;;;17.02;7.85;;;14.60;99.90;;;;;;5021346;28;25081;-74
2022/10/13 05:04:23;;;;;;;18.60;7.70;;;14.60;99.90;;;;;;5020176;28;25080;-73
2022/10/13 05:06:48;;;;;;;25.75;8.82;;;14.70;99.90;;;;;;5025571;28;25113;-72
2022/10/13 05:09:15;;;;;;;17.50;8.00;;;14.70;99.90;;;;;;5026573;28;25065;-72
2022/10/13 05:11:40;;;;;;;13.65;7.30;;;14.70;99.90;;;;;;5025149;28;25151;-72
2022/10/13 05:14:06;;;;;;;23.42;8.80;;;14.80;99.90;;;;;;5021034;28;25091;-72
2022/10/13 05:16:31;;;;;;;19.52;8.77;;;14.80;99.90;;;;;;5018965;28;25090;-71
2022/10/13 05:18:57;;;;;;;29.23;9.57;;;14.80;99.90;;;;;;5026238;28;25150;-70
2022/10/13 05:21:25;;;;;;;20.00;9.10;;;14.80;99.90;;;;;;5021915;28;25083;-71
2022/10/13 05:23:54;;;;;;;15.48;7.82;;;14.80;99.90;;;;;;5026682;28;25054;-72
2022/10/13 05:26:22;;;;;;;17.70;8.13;;;14.80;99.90;;;;;;5017578;28;25087;-74
2022/10/13 05:28:48;;;;;;;35.00;9.38;;;14.80;99.90;;;;;;5027047;28;25066;-73
2022/10/13 05:31:19;;;;;;;19.63;9.32;;;14.80;99.90;;;;;;5021601;28;25074;-72
2022/10/13 05:33:46;;;;;;;22.95;9.23;;;14.90;99.90;;;;;;5021698;28;25533;-71
2022/10/13 05:36:14;;;;;;;25.38;9.63;;;14.90;99.90;;;;;;5016582;28;25073;-73
2022/10/13 05:38:39;;;;;;;19.30;9.35;;;14.90;99.90;;;;;;5016768;28;25083;-71
2022/10/13 05:41:07;;;;;;;23.02;9.93;;;15.00;99.90;;;;;;5018114;28;25056;-70
2022/10/13 05:43:33;;;;;;;22.55;9.73;;;15.10;99.90;;;;;;5019734;28;25078;-72
2022/10/13 05:46:00;;;;;;;24.80;9.75;;;15.20;99.90;;;;;;5019680;28;25085;-73
2022/10/13 05:48:26;;;;;;;29.35;10.63;;;15.30;99.90;;;;;;5017034;28;25068;-71
2022/10/13 05:50:53;;;;;;;22.13;9.85;;;15.30;99.90;;;;;;5025284;28;25107;-71
2022/10/13 05:53:21;;;;;;;21.80;9.48;;;15.30;99.90;;;;;;5017841;28;25102;-71
2022/10/13 05:55:46;;;;;;;26.20;10.15;;;15.40;99.90;;;;;;5020924;28;25046;-72
2022/10/13 05:58:12;;;;;;;23.33;10.45;;;15.40;99.90;;;;;;5028676;28;25148;-72
2022/10/13 06:00:40;;;;;;;27.65;11.13;;;15.40;99.90;;;;;;5009889;28;25052;-71
2022/10/13 06:03:13;;;;;;;25.60;11.18;;;15.50;99.90;;;;;;5027905;28;25077;-72
2022/10/13 06:05:39;;;;;;;;;;;15.40;99.90;;;;;;5026890;28;25060;-72
2022/10/13 06:08:05;;;;;;;20.10;10.32;;;15.40;99.90;;;;;;5027372;28;24062;-72
2022/10/13 06:10:31;;;;;;;25.33;10.93;;;15.40;99.90;;;;;;5026223;28;25010;-71
2022/10/13 06:12:56;;;;;;;24.42;11.05;;;15.40;99.90;;;;;;5027642;28;25110;-72
2022/10/13 06:15:22;;;;;;;25.65;12.30;;;15.40;99.90;;;;;;5026881;28;25115;-72
2022/10/13 06:17:47;;;;;;;29.10;13.85;;;15.40;99.90;;;;;;5028627;28;25101;-71
2022/10/13 06:20:13;;;;;;;31.40;13.65;;;15.40;99.90;;;;;;5030287;28;25089;-73
2022/10/13 06:22:38;;;;;;;30.55;12.10;;;15.30;99.90;;;;;;5030512;28;25076;-72
2022/10/13 06:25:05;;;;;;;23.88;11.73;;;15.30;99.90;;;;;;5028954;28;25097;-72
2022/10/13 06:27:31;;;;;;;25.77;12.70;;;15.40;99.90;;;;;;5035999;28;25087;-73
2022/10/13 06:29:57;;;;;;;31.20;14.45;;;15.50;99.90;;;;;;5033264;28;25085;-71
2022/10/13 06:32:23;;;;;;;31.67;12.30;;;15.40;99.90;;;;;;5032867;28;25171;-73
2022/10/13 06:34:48;;;;;;;27.88;13.02;;;15.40;99.90;;;;;;5025792;28;25169;-72
2022/10/13 06:37:14;;;;;;;31.98;12.65;;;15.40;99.90;;;;;;5031303;28;25121;-73
2022/10/13 06:39:39;;;;;;;26.30;13.43;;;15.50;99.90;;;;;;5024352;28;25100;-71
2022/10/13 06:42:05;;;;;;;29.02;12.15;;;15.60;99.90;;;;;;5028721;28;25084;-73
2022/10/13 06:44:31;;;;;;;24.20;12.75;;;15.60;99.90;;;;;;5027963;28;25076;-72
2022/10/13 06:46:57;;;;;;;21.85;12.15;;;15.70;99.90;;;;;;5026169;28;25161;-73
2022/10/13 06:49:23;;;;;;;28.05;12.25;;;15.70;99.90;;;;;;5026656;28;25091;-72
2022/10/13 06:51:48;;;;;;;32.08;12.63;;;15.70;99.90;;;;;;5023116;28;25079;-71
2022/10/13 06:54:15;;;;;;;28.30;12.10;;;15.90;99.90;;;;;;5025286;28;25082;-72
2022/10/13 06:56:40;;;;;;;22.40;11.55;;;15.90;99.90;;;;;;5031307;28;25097;-71
2022/10/13 06:59:06;;;;;;;26.73;12.57;;;15.90;99.90;;;;;;5029077;28;25114;-73
2022/10/13 07:01:32;;;;;;;24.60;12.93;;;15.80;99.90;;;;;;5028144;28;25059;-72
2022/10/13 07:03:57;;;;;;;21.83;11.77;;;15.80;99.90;;;;;;5028376;28;25060;-72
2022/10/13 07:06:23;;;;;;;23.92;13.35;;;15.80;99.90;;;;;;5011126;28;25158;-72
2022/10/13 07:08:49;;;;;;;23.95;12.07;;;15.90;99.90;;;;;;5026847;28;25059;-72
2022/10/13 07:11:15;;;;;;;30.13;13.32;;;15.90;99.90;;;;;;5023523;28;25065;-72
2022/10/13 07:13:41;;;;;;;27.02;11.77;;;15.90;99.90;;;;;;5019381;28;25061;-72
2022/10/13 07:16:08;;;;;;;21.95;11.65;;;15.90;99.90;;;;;;5022310;28;25129;-72
2022/10/13 07:18:33;;;;;;;24.25;12.13;;;16.00;99.90;;;;;;5027672;28;25071;-70
2022/10/13 07:21:00;;;;;;;24.60;11.23;;;16.10;99.90;;;;;;5028470;28;25048;-71
2022/10/13 07:23:26;;;;;;;20.77;10.52;;;16.10;99.90;;;;;;5023853;28;25055;-72
2022/10/13 07:25:52;;;;;;;25.95;11.63;;;16.20;99.90;;;;;;5027609;28;25100;-72
2022/10/13 07:28:18;;;;;;;24.27;11.48;;;16.20;99.90;;;;;;5027046;28;25068;-72
2022/10/13 07:30:44;;;;;;;19.48;10.27;;;16.00;99.90;;;;;;5027931;28;25052;-72
2022/10/13 07:33:09;;;;;;;24.08;10.90;;;16.00;99.90;;;;;;5027443;28;25060;-73
2022/10/13 07:35:38;;;;;;;20.50;9.85;;;15.80;99.90;;;;;;5025623;28;25086;-73
2022/10/13 07:38:03;;;;;;;23.23;9.93;;;15.90;99.90;;;;;;5023720;28;25075;-72
2022/10/13 07:40:29;;;;;;;23.88;9.85;;;15.80;99.90;;;;;;5023799;28;25061;-73
2022/10/13 07:42:57;;;;;;;27.98;9.73;;;15.70;99.90;;;;;;5025184;28;25060;-70
2022/10/13 07:45:23;;;;;;;15.68;8.95;;;15.80;99.90;;;;;;5023227;28;25070;-73
2022/10/13 07:47:49;;;;;;;19.55;10.13;;;15.70;99.90;;;;;;5027527;28;25162;-72
2022/10/13 07:50:14;;;;;;;14.48;8.43;;;15.80;99.90;;;;;;5027543;28;25052;-72
2022/10/13 07:52:40;;;;;;;18.33;9.40;;;15.90;99.90;;;;;;5025402;28;25105;-72
2022/10/13 07:55:07;;;;;;;21.65;9.88;;;16.00;99.90;;;;;;5027321;28;25063;-72
2022/10/13 07:57:32;;;;;;;20.83;10.48;;;16.20;99.90;;;;;;5032424;28;25061;-73
2022/10/13 07:59:58;;;;;;;21.70;10.57;;;16.30;99.90;;;;;;5025531;28;25064;-72
2022/10/13 08:02:23;;;;;;;20.98;10.60;;;16.10;99.90;;;;;;5023456;28;25105;-73
2022/10/13 08:04:49;;;;;;;18.73;10.15;;;16.00;99.90;;;;;;5008634;28;25089;-72
2022/10/13 08:07:15;;;;;;;25.73;11.75;;;15.90;99.90;;;;;;5026871;28;25050;-71
2022/10/13 08:09:41;;;;;;;27.08;11.07;;;15.90;99.90;;;;;;5019767;28;25065;-72
2022/10/13 08:12:07;;;;;;;21.33;10.43;;;15.90;99.90;;;;;;5023573;28;25065;-71
2022/10/13 08:14:32;;;;;;;32.17;10.52;;;15.90;99.90;;;;;;5024709;28;25072;-73
2022/10/13 08:16:58;;;;;;;26.88;10.07;;;16.00;99.90;;;;;;5025914;28;25073;-72
2022/10/13 08:19:25;;;;;;;15.85;10.18;;;16.10;99.90;;;;;;5027802;28;25098;-72
2022/10/13 08:21:51;;;;;;;21.20;10.43;;;16.10;99.90;;;;;;5028714;28;25064;-72
2022/10/13 08:24:18;;;;;;;20.83;10.10;;;16.20;99.90;;;;;;5029994;28;25066;-72
2022/10/13 08:26:45;;;;;;;17.25;9.23;;;16.30;99.90;;;;;;5033161;28;25064;-72
2022/10/13 08:29:11;;;;;;;22.60;9.73;;;16.30;99.90;;;;;;5028562;28;25076;-71
2022/10/13 08:31:37;;;;;;;18.83;8.95;;;16.30;99.90;;;;;;5027634;28;25092;-72
2022/10/13 08:34:02;;;;;;;22.35;9.18;;;16.20;99.90;;;;;;5009300;28;25109;-72
2022/10/13 08:36:28;;;;;;;22.70;9.50;;;16.20;99.90;;;;;;5030120;28;25083;-72
2022/10/13 08:38:53;;;;;;;15.02;8.05;;;16.20;99.90;;;;;;4998260;28;25070;-71
2022/10/13 08:41:24;;;;;;;22.63;9.20;;;16.20;99.90;;;;;;5032591;28;25058;-72
2022/10/13 08:44:03;;;;;;;18.20;8.50;;;16.20;99.90;;;;;;5031092;28;25163;-71
2022/10/13 08:46:38;;;;;;;23.95;9.23;;;16.30;99.90;;;;;;5028647;28;25065;-69
2022/10/13 08:49:05;;;;;;;14.30;8.40;;;16.30;99.90;;;;;;5008750;28;25170;-72
2022/10/13 08:51:30;;;;;;;16.90;8.00;;;16.20;99.90;;;;;;5026359;28;25089;-70
2022/10/13 08:53:57;;;;;;;15.93;7.80;;;16.20;99.90;;;;;;5028108;28;25059;-73
2022/10/13 08:56:33;;;;;;;17.45;9.18;;;16.20;99.90;;;;;;5027378;28;25046;-71
2022/10/13 08:59:00;;;;;;;19.20;8.02;;;16.10;99.90;;;;;;5027091;28;25066;-73
2022/10/13 09:01:34;;;;;;;20.85;9.25;;;16.00;99.90;;;;;;5025040;28;25068;-73
2022/10/13 09:04:29;;;;;;;22.00;8.55;;;16.10;99.90;;;;;;5021852;28;25054;-74
2022/10/13 09:07:38;;;;;;;18.17;9.02;;;15.90;99.90;;;;;;5024893;28;25113;-72
2022/10/13 09:10:06;;;;;;;19.02;8.93;;;15.90;99.90;;;;;;5005965;28;25079;-72
2022/10/13 09:12:32;;;;;;;16.20;8.10;;;15.90;99.90;;;;;;5030101;28;25082;-72
2022/10/13 09:15:08;;;;;;;19.60;9.00;;;15.80;99.90;;;;;;5025313;28;25181;-71
2022/10/13 09:17:34;;;;;;;25.10;9.43;;;15.90;99.90;;;;;;5021371;28;25164;-70
2022/10/13 09:20:16;;;;;;;19.60;10.27;;;15.80;99.90;;;;;;5019785;28;25073;-72
2022/10/13 09:22:43;;;;;;;28.13;10.73;;;15.90;99.90;;;;;;5003073;28;25072;-72
2022/10/13 09:25:20;;;;;;;15.80;8.50;;;15.80;99.90;;;;;;5022982;28;25167;-72
2022/10/13 09:28:00;;;;;;;18.67;8.95;;;15.80;99.90;;;;;;5019830;28;25076;-72
2022/10/13 09:30:37;;;;;;;18.50;9.05;;;15.90;99.90;;;;;;5028168;28;25154;-73
2022/10/13 09:33:10;;;;;;;24.83;10.32;;;16.00;99.90;;;;;;5020552;28;25145;-72
2022/10/13 09:35:37;;;;;;;23.77;9.48;;;16.00;99.90;;;;;;5028334;28;25131;-72
2022/10/13 09:38:02;;;;;;;18.83;9.68;;;16.10;99.90;;;;;;5031349;28;25053;-75
2022/10/13 09:40:31;;;;;;;25.00;9.02;;;16.10;99.90;;;;;;5023943;28;25072;-71
2022/10/13 09:42:58;;;;;;;18.77;9.80;;;16.10;99.90;;;;;;5008379;28;25150;-71
2022/10/13 09:45:25;;;;;;;27.92;10.15;;;16.10;99.90;;;;;;4993766;28;25119;-72
2022/10/13 09:48:05;;;;;;;14.80;8.23;;;16.10;99.90;;;;;;5029627;28;25156;-74
2022/10/13 09:50:34;;;;;;;21.70;10.07;;;16.00;99.90;;;;;;5029500;28;25069;-72
2022/10/13 09:53:24;;;;;;;19.70;9.20;;;15.90;99.90;;;;;;5030075;28;25101;-72
2022/10/13 09:56:27;;;;;;;19.63;9.38;;;15.90;99.90;;;;;;5028428;28;25060;-72
2022/10/13 09:59:02;;;;;;;28.48;10.65;;;16.20;99.90;;;;;;5023330;28;25071;-71
2022/10/13 10:01:35;;;;;;;30.27;10.13;;;16.40;99.90;;;;;;5028659;28;25169;-71
2022/10/13 10:04:05;;;;;;;23.50;9.18;;;16.40;99.90;;;;;;5020514;28;25132;-73
2022/10/13 10:06:30;;;;;;;17.92;9.15;;;16.20;99.90;;;;;;5026845;28;25073;-72
2022/10/13 10:09:22;;;;;;;23.83;10.60;;;16.30;99.90;;;;;;5027500;28;25067;-71
2022/10/13 10:11:50;;;;;;;20.90;9.57;;;16.30;99.90;;;;;;5015877;28;25057;-71
2022/10/13 10:14:25;;;;;;;22.75;10.70;;;16.40;99.90;;;;;;5024056;28;25051;-70
2022/10/13 10:17:21;;;;;;;18.88;9.18;;;16.30;99.90;;;;;;5028093;28;25052;-71
2022/10/13 10:20:36;;;;;;;27.55;10.57;;;16.40;99.90;;;;;;5025448;28;25054;-73
2022/10/13 10:23:17;;;;;;;18.73;9.25;;;16.40;99.90;;;;;;4989145;28;25114;-71
2022/10/13 10:25:49;;;;;;;30.88;10.05;;;16.60;99.90;;;;;;5025139;28;25137;-72
2022/10/13 10:28:21;;;;;;;24.33;10.07;;;16.60;99.90;;;;;;5026573;28;25065;-72
2022/10/13 10:31:12;;;;;;;20.30;10.40;;;16.50;99.90;;;;;;5022492;28;25070;-71
2022/10/13 10:33:49;;;;;;;22.40;9.90;;;16.40;99.90;;;;;;5023853;28;25084;-71
2022/10/13 10:36:22;;;;;;;26.15;10.48;;;16.40;99.90;;;;;;5023255;28;25071;-73
2022/10/13 10:38:58;;;;;;;21.45;10.77;;;16.40;99.90;;;;;;5022255;28;25164;-72
2022/10/13 10:41:37;;;;;;;23.98;10.52;;;16.40;99.90;;;;;;5028139;28;25089;-71
2022/10/13 10:44:17;;;;;;;21.48;10.20;;;16.30;99.90;;;;;;5019154;28;25156;-72
2022/10/13 10:46:50;;;;;;;17.48;9.50;;;16.30;99.90;;;;;;5009864;28;25074;-72
2022/10/13 10:49:31;;;;;;;22.92;10.20;;;16.50;99.90;;;;;;5027749;28;25075;-71
2022/10/13 10:52:00;;;;;;;27.13;11.13;;;16.70;99.90;;;;;;5025252;28;25136;-71
2022/10/13 10:54:34;;;;;;;21.65;10.88;;;16.70;99.90;;;;;;5024136;28;25089;-71
2022/10/13 10:57:08;;;;;;;20.88;9.77;;;16.90;99.90;;;;;;5019796;28;25069;-71
2022/10/13 10:59:52;;;;;;;24.92;10.63;;;17.00;99.90;;;;;;5024095;28;25076;-73
2022/10/13 11:02:29;;;;;;;23.40;10.90;;;16.90;99.90;;;;;;5028184;28;25068;-71
2022/10/13 11:04:56;;;;;;;24.45;11.52;;;16.60;99.90;;;;;;5026864;28;25060;-71
2022/10/13 11:07:22;;;;;;;23.55;10.50;;;16.50;99.90;;;;;;5027579;28;25082;-71
2022/10/13 11:09:47;;;;;;;19.90;10.68;;;16.50;99.90;;;;;;5020934;28;25053;-70
2022/10/13 11:12:19;;;;;;;27.83;11.18;;;16.50;99.90;;;;;;5024641;28;25062;-74
2022/10/13 11:15:09;;;;;;;23.98;10.73;;;16.50;99.90;;;;;;5026661;28;25082;-73
2022/10/13 11:17:39;;;;;;;25.75;10.57;;;16.30;99.90;;;;;;4990064;28;25076;-72
2022/10/13 11:20:20;;;;;;;28.63;12.65;;;16.20;99.90;;;;;;5023198;28;25065;-71
2022/10/13 11:22:57;;;;;;;26.13;11.25;;;16.20;99.90;;;;;;5024333;28;25069;-70
2022/10/13 11:25:35;;;;;;;18.75;10.63;;;16.10;99.90;;;;;;5022058;28;25074;-71
2022/10/13 11:28:21;;;;;;;18.40;10.25;;;16.10;99.90;;;;;;5020749;28;25059;-70
2022/10/13 11:30:49;;;;;;;27.08;10.88;;;16.10;99.90;;;;;;5019040;28;25075;-71
2022/10/13 11:33:37;;;;;;;19.58;10.15;;;16.20;99.90;;;;;;5026819;28;25054;-75
2022/10/13 11:36:30;;;;;;;20.73;9.27;;;16.20;99.90;;;;;;5019716;28;25075;-72
2022/10/13 11:39:30;;;;;;;17.08;8.73;;;16.40;99.90;;;;;;5027143;28;25079;-72
2022/10/13 11:42:08;;;;;;;20.55;8.63;;;16.90;99.90;;;;;;5023435;28;25073;-71
2022/10/13 11:44:56;;;;;;;18.08;8.90;;;17.00;99.90;;;;;;5009723;28;25054;-72
2022/10/13 11:47:43;;;;;;;17.63;8.50;;;17.30;99.90;;;;;;5023411;28;25068;-72
2022/10/13 11:50:20;;;;;;;15.20;7.85;;;17.40;99.90;;;;;;5025426;28;25165;-72
2022/10/13 11:52:51;;;;;;;18.17;9.45;;;17.60;99.90;;;;;;5025669;28;25117;-71
2022/10/13 11:55:32;;;;;;;17.40;8.43;;;17.50;99.90;;;;;;5026407;28;25065;-72
2022/10/13 11:58:19;;;;;;;28.13;9.15;;;17.70;99.90;;;;;;5020589;28;25076;-72
2022/10/13 12:01:05;;;;;;;18.30;8.32;;;17.20;99.90;;;;;;5025039;28;25055;-71
2022/10/13 12:03:37;;;;;;;16.33;8.10;;;16.90;99.90;;;;;;5026295;28;25146;-71
2022/10/13 12:06:33;;;;;;;22.77;9.13;;;16.80;99.90;;;;;;5019593;28;25054;-72
2022/10/13 12:09:19;;;;;;;19.77;9.15;;;16.90;99.90;;;;;;5018059;28;25077;-70
2022/10/13 12:11:45;;;;;;;22.48;9.25;;;16.90;99.90;;;;;;5023399;28;25064;-71
2022/10/13 12:14:24;;;;;;;19.65;10.00;;;17.00;99.90;;;;;;5021389;28;25132;-71
2022/10/13 12:16:58;;;;;;;19.02;9.48;;;17.00;99.90;;;;;;5025879;28;25089;-71
2022/10/13 12:19:26;;;;;;;22.00;9.70;;;17.00;99.90;;;;;;5026391;28;25095;-71
2022/10/13 12:21:58;;;;;;;23.90;11.13;;;16.70;99.90;;;;;;5027699;28;25052;-72
2022/10/13 12:24:26;;;;;;;17.85;9.93;;;16.40;99.90;;;;;;5024834;28;25065;-70
2022/10/13 12:26:52;;;;;;;16.60;8.98;;;16.40;99.90;;;;;;5008009;28;25063;-72
2022/10/13 12:29:24;;;;;;;26.30;10.65;;;16.50;99.90;;;;;;5025463;28;25076;-71
2022/10/13 12:31:50;;;;;;;20.95;9.63;;;16.60;99.90;;;;;;5025853;28;25077;-70
2022/10/13 12:34:32;;;;;;;16.90;9.68;;;16.70;99.90;;;;;;5025424;28;25073;-72
2022/10/13 12:37:04;;;;;;;19.42;10.68;;;16.50;99.90;;;;;;5020312;28;25077;-72
2022/10/13 12:39:31;;;;;;;;;;;16.30;99.90;;;;;;5026151;28;25069;-70
2022/10/13 12:41:59;;;;;;;24.90;10.52;;;16.30;99.90;;;;;;5021984;28;25154;-71
2022/10/13 12:44:27;;;;;;;23.90;11.57;;;16.30;99.90;;;;;;5024466;28;25143;-71
2022/10/13 12:46:58;;;;;;;23.98;10.43;;;16.40;99.90;;;;;;5020594;28;25168;-72
2022/10/13 12:49:25;;;;;;;19.98;10.20;;;16.30;99.90;;;;;;5022763;28;25101;-72